sensor_id;sensor_type;location;lat;lon;timestamp;P1;durP1;ratioP1;P2;durP2;ratioP2
77105;SDS011;66057;54.718;18.426;2023-04-25T00:01:49;5.18;;;3.45;;
77105;SDS011;66057;54.718;18.426;2023-04-25T00:04:18;6.05;;;2.25;;
77105;SDS011;66057;54.718;18.426;2023-04-25T00:06:44;5.97;;;4.25;;
77105;SDS011;66057;54.718;18.426;2023-04-25T00:09:13;4.85;;;3.42;;
77105;SDS011;66057;54.718;18.426;2023-04-25T00:11:41;4.93;;;3.05;;
77105;SDS011;66057;54.718;18.426;2023-04-25T00:14:06;4.93;;;2.72;;
77105;SDS011;66057;54.718;18.426;2023-04-25T00:16:34;5.25;;;3.45;;
77105;SDS011;66057;54.718;18.426;2023-04-25T00:19:01;4.72;;;3.90;;
77105;SDS011;66057;54.718;18.426;2023-04-25T00:21:28;3.45;;;3.15;;
77105;SDS011;66057;54.718;18.426;2023-04-25T00:23:58;5.40;;;2.95;;
77105;SDS011;66057;54.718;18.426;2023-04-25T00:26:24;3.42;;;2.63;;
77105;SDS011;66057;54.718;18.426;2023-04-25T00:28:52;4.47;;;2.90;;
77105;SDS011;66057;54.718;18.426;2023-04-25T00:31:18;3.95;;;2.60;;
77105;SDS011;66057;54.718;18.426;2023-04-25T00:33:45;3.58;;;3.28;;
77105;SDS011;66057;54.718;18.426;2023-04-25T00:36:11;3.13;;;2.83;;
77105;SDS011;66057;54.718;18.426;2023-04-25T00:38:38;4.38;;;3.40;;
77105;SDS011;66057;54.718;18.426;2023-04-25T00:41:07;5.38;;;3.80;;
77105;SDS011;66057;54.718;18.426;2023-04-25T00:43:34;4.70;;;2.90;;
77105;SDS011;66057;54.718;18.426;2023-04-25T00:46:11;3.33;;;2.30;;
77105;SDS011;66057;54.718;18.426;2023-04-25T00:48:37;3.67;;;2.97;;
77105;SDS011;66057;54.718;18.426;2023-04-25T00:51:03;3.88;;;3.47;;
77105;SDS011;66057;54.718;18.426;2023-04-25T00:53:30;4.75;;;3.63;;
77105;SDS011;66057;54.718;18.426;2023-04-25T00:55:58;3.90;;;3.17;;
77105;SDS011;66057;54.718;18.426;2023-04-25T00:58:24;3.92;;;2.90;;
77105;SDS011;66057;54.718;18.426;2023-04-25T01:00:51;4.10;;;2.60;;
77105;SDS011;66057;54.718;18.426;2023-04-25T01:03:20;3.58;;;2.53;;
77105;SDS011;66057;54.718;18.426;2023-04-25T01:05:58;2.08;;;1.95;;
77105;SDS011;66057;54.718;18.426;2023-04-25T01:08:32;2.90;;;2.05;;
77105;SDS011;66057;54.718;18.426;2023-04-25T01:10:59;2.60;;;2.40;;
77105;SDS011;66057;54.718;18.426;2023-04-25T01:13:26;2.60;;;2.40;;
77105;SDS011;66057;54.718;18.426;2023-04-25T01:15:51;2.60;;;2.25;;
77105;SDS011;66057;54.718;18.426;2023-04-25T01:18:21;3.80;;;2.20;;
77105;SDS011;66057;54.718;18.426;2023-04-25T01:20:47;3.92;;;3.00;;
77105;SDS011;66057;54.718;18.426;2023-04-25T01:23:17;3.78;;;3.17;;
77105;SDS011;66057;54.718;18.426;2023-04-25T01:25:46;3.78;;;2.92;;
77105;SDS011;66057;54.718;18.426;2023-04-25T01:28:14;3.08;;;2.72;;
77105;SDS011;66057;54.718;18.426;2023-04-25T01:30:41;2.92;;;2.63;;
77105;SDS011;66057;54.718;18.426;2023-04-25T01:33:09;3.00;;;2.72;;
77105;SDS011;66057;54.718;18.426;2023-04-25T01:35:35;3.42;;;2.72;;
77105;SDS011;66057;54.718;18.426;2023-04-25T01:38:02;4.18;;;2.60;;
77105;SDS011;66057;54.718;18.426;2023-04-25T01:40:28;4.50;;;3.53;;
77105;SDS011;66057;54.718;18.426;2023-04-25T01:42:54;4.13;;;3.20;;
77105;SDS011;66057;54.718;18.426;2023-04-25T01:45:22;3.65;;;3.35;;
77105;SDS011;66057;54.718;18.426;2023-04-25T01:47:50;3.55;;;3.17;;
77105;SDS011;66057;54.718;18.426;2023-04-25T01:52:43;5.25;;;3.67;;
77105;SDS011;66057;54.718;18.426;2023-04-25T01:55:10;4.22;;;3.83;;
77105;SDS011;66057;54.718;18.426;2023-04-25T01:57:40;4.72;;;4.10;;
77105;SDS011;66057;54.718;18.426;2023-04-25T02:00:08;2.75;;;2.55;;
77105;SDS011;66057;54.718;18.426;2023-04-25T02:02:35;3.72;;;3.42;;
77105;SDS011;66057;54.718;18.426;2023-04-25T02:05:02;4.50;;;3.58;;
77105;SDS011;66057;54.718;18.426;2023-04-25T02:07:29;5.53;;;3.60;;
77105;SDS011;66057;54.718;18.426;2023-04-25T02:09:55;4.13;;;3.10;;
77105;SDS011;66057;54.718;18.426;2023-04-25T02:12:21;4.55;;;3.40;;
77105;SDS011;66057;54.718;18.426;2023-04-25T02:14:48;5.78;;;3.78;;
77105;SDS011;66057;54.718;18.426;2023-04-25T02:17:20;6.95;;;4.82;;
77105;SDS011;66057;54.718;18.426;2023-04-25T02:19:46;6.75;;;4.82;;
77105;SDS011;66057;54.718;18.426;2023-04-25T02:22:13;6.35;;;4.20;;
77105;SDS011;66057;54.718;18.426;2023-04-25T02:24:38;6.13;;;4.72;;
77105;SDS011;66057;54.718;18.426;2023-04-25T02:27:06;6.43;;;4.75;;
77105;SDS011;66057;54.718;18.426;2023-04-25T02:29:33;7.05;;;4.10;;
77105;SDS011;66057;54.718;18.426;2023-04-25T02:31:59;6.03;;;4.22;;
77105;SDS011;66057;54.718;18.426;2023-04-25T02:34:25;7.28;;;4.43;;
77105;SDS011;66057;54.718;18.426;2023-04-25T02:36:51;4.57;;;3.90;;
77105;SDS011;66057;54.718;18.426;2023-04-25T02:39:17;4.03;;;3.08;;
77105;SDS011;66057;54.718;18.426;2023-04-25T02:41:44;4.82;;;3.72;;
77105;SDS011;66057;54.718;18.426;2023-04-25T02:44:10;5.70;;;4.07;;
77105;SDS011;66057;54.718;18.426;2023-04-25T02:46:36;4.43;;;3.92;;
77105;SDS011;66057;54.718;18.426;2023-04-25T02:49:01;4.25;;;2.92;;
77105;SDS011;66057;54.718;18.426;2023-04-25T02:51:27;3.70;;;3.13;;
77105;SDS011;66057;54.718;18.426;2023-04-25T02:53:52;2.70;;;2.25;;
77105;SDS011;66057;54.718;18.426;2023-04-25T02:56:18;3.95;;;2.95;;
77105;SDS011;66057;54.718;18.426;2023-04-25T02:58:43;3.92;;;2.83;;
77105;SDS011;66057;54.718;18.426;2023-04-25T03:01:10;3.42;;;2.90;;
77105;SDS011;66057;54.718;18.426;2023-04-25T03:03:35;3.42;;;2.80;;
77105;SDS011;66057;54.718;18.426;2023-04-25T03:06:03;2.85;;;2.22;;
77105;SDS011;66057;54.718;18.426;2023-04-25T03:08:29;6.25;;;4.20;;
77105;SDS011;66057;54.718;18.426;2023-04-25T03:10:59;4.97;;;3.10;;
77105;SDS011;66057;54.718;18.426;2023-04-25T03:13:25;3.80;;;2.38;;
77105;SDS011;66057;54.718;18.426;2023-04-25T03:15:52;3.72;;;2.70;;
77105;SDS011;66057;54.718;18.426;2023-04-25T03:18:18;3.97;;;3.13;;
77105;SDS011;66057;54.718;18.426;2023-04-25T03:20:45;7.40;;;3.17;;
77105;SDS011;66057;54.718;18.426;2023-04-25T03:25:38;3.58;;;2.28;;
77105;SDS011;66057;54.718;18.426;2023-04-25T03:28:04;7.28;;;2.58;;
77105;SDS011;66057;54.718;18.426;2023-04-25T03:30:30;6.75;;;3.13;;
77105;SDS011;66057;54.718;18.426;2023-04-25T03:32:55;3.70;;;3.13;;
77105;SDS011;66057;54.718;18.426;2023-04-25T03:35:21;4.22;;;2.78;;
77105;SDS011;66057;54.718;18.426;2023-04-25T03:37:48;8.00;;;3.92;;
77105;SDS011;66057;54.718;18.426;2023-04-25T03:40:14;7.28;;;3.47;;
77105;SDS011;66057;54.718;18.426;2023-04-25T03:42:40;4.85;;;3.08;;
77105;SDS011;66057;54.718;18.426;2023-04-25T03:45:06;5.28;;;3.13;;
77105;SDS011;66057;54.718;18.426;2023-04-25T03:47:32;5.18;;;3.72;;
77105;SDS011;66057;54.718;18.426;2023-04-25T03:49:58;12.73;;;4.15;;
77105;SDS011;66057;54.718;18.426;2023-04-25T03:52:25;4.80;;;3.90;;
77105;SDS011;66057;54.718;18.426;2023-04-25T03:54:51;6.53;;;3.67;;
77105;SDS011;66057;54.718;18.426;2023-04-25T03:57:16;5.93;;;3.85;;
77105;SDS011;66057;54.718;18.426;2023-04-25T03:59:42;7.75;;;3.90;;
77105;SDS011;66057;54.718;18.426;2023-04-25T04:02:08;8.40;;;4.07;;
77105;SDS011;66057;54.718;18.426;2023-04-25T04:04:33;5.88;;;3.75;;
77105;SDS011;66057;54.718;18.426;2023-04-25T04:06:59;5.60;;;3.72;;
77105;SDS011;66057;54.718;18.426;2023-04-25T04:09:25;5.55;;;4.47;;
77105;SDS011;66057;54.718;18.426;2023-04-25T04:11:51;7.78;;;4.43;;
77105;SDS011;66057;54.718;18.426;2023-04-25T04:14:16;6.53;;;4.05;;
77105;SDS011;66057;54.718;18.426;2023-04-25T04:16:42;7.03;;;3.92;;
77105;SDS011;66057;54.718;18.426;2023-04-25T04:19:08;6.55;;;3.97;;
77105;SDS011;66057;54.718;18.426;2023-04-25T04:21:33;8.75;;;4.85;;
77105;SDS011;66057;54.718;18.426;2023-04-25T04:23:59;8.23;;;5.00;;
77105;SDS011;66057;54.718;18.426;2023-04-25T04:26:25;9.25;;;5.07;;
77105;SDS011;66057;54.718;18.426;2023-04-25T04:28:51;9.90;;;5.22;;
77105;SDS011;66057;54.718;18.426;2023-04-25T04:31:19;4.80;;;3.70;;
77105;SDS011;66057;54.718;18.426;2023-04-25T04:33:47;6.10;;;4.55;;
77105;SDS011;66057;54.718;18.426;2023-04-25T04:36:12;7.85;;;4.38;;
77105;SDS011;66057;54.718;18.426;2023-04-25T04:38:39;6.70;;;4.35;;
77105;SDS011;66057;54.718;18.426;2023-04-25T04:41:07;7.78;;;4.82;;
77105;SDS011;66057;54.718;18.426;2023-04-25T04:43:33;4.57;;;3.13;;
77105;SDS011;66057;54.718;18.426;2023-04-25T04:46:02;7.30;;;4.03;;
77105;SDS011;66057;54.718;18.426;2023-04-25T04:48:29;8.77;;;2.60;;
77105;SDS011;66057;54.718;18.426;2023-04-25T04:50:57;7.88;;;3.88;;
77105;SDS011;66057;54.718;18.426;2023-04-25T04:53:23;6.78;;;3.60;;
77105;SDS011;66057;54.718;18.426;2023-04-25T04:55:49;8.75;;;4.05;;
77105;SDS011;66057;54.718;18.426;2023-04-25T04:58:15;10.48;;;4.68;;
77105;SDS011;66057;54.718;18.426;2023-04-25T05:00:40;9.85;;;4.10;;
77105;SDS011;66057;54.718;18.426;2023-04-25T05:03:06;8.50;;;3.95;;
77105;SDS011;66057;54.718;18.426;2023-04-25T05:05:32;7.93;;;4.18;;
77105;SDS011;66057;54.718;18.426;2023-04-25T05:07:57;5.72;;;3.50;;
77105;SDS011;66057;54.718;18.426;2023-04-25T05:10:23;6.88;;;4.38;;
77105;SDS011;66057;54.718;18.426;2023-04-25T05:12:49;9.00;;;3.25;;
77105;SDS011;66057;54.718;18.426;2023-04-25T05:15:14;8.38;;;4.00;;
77105;SDS011;66057;54.718;18.426;2023-04-25T05:17:40;4.97;;;3.40;;
77105;SDS011;66057;54.718;18.426;2023-04-25T05:20:06;8.10;;;4.55;;
77105;SDS011;66057;54.718;18.426;2023-04-25T05:22:34;6.20;;;3.35;;
77105;SDS011;66057;54.718;18.426;2023-04-25T05:25:01;4.60;;;3.08;;
77105;SDS011;66057;54.718;18.426;2023-04-25T05:27:27;4.68;;;3.17;;
77105;SDS011;66057;54.718;18.426;2023-04-25T05:29:53;6.50;;;3.35;;
77105;SDS011;66057;54.718;18.426;2023-04-25T05:32:20;8.00;;;4.25;;
77105;SDS011;66057;54.718;18.426;2023-04-25T05:34:45;5.60;;;3.22;;
77105;SDS011;66057;54.718;18.426;2023-04-25T05:37:11;4.97;;;3.42;;
77105;SDS011;66057;54.718;18.426;2023-04-25T05:39:36;8.93;;;4.13;;
77105;SDS011;66057;54.718;18.426;2023-04-25T05:42:02;9.25;;;3.75;;
77105;SDS011;66057;54.718;18.426;2023-04-25T05:44:29;6.38;;;3.40;;
77105;SDS011;66057;54.718;18.426;2023-04-25T05:46:55;8.18;;;3.80;;
77105;SDS011;66057;54.718;18.426;2023-04-25T05:49:21;6.65;;;3.45;;
77105;SDS011;66057;54.718;18.426;2023-04-25T05:51:46;5.47;;;3.42;;
77105;SDS011;66057;54.718;18.426;2023-04-25T05:54:12;6.78;;;4.03;;
77105;SDS011;66057;54.718;18.426;2023-04-25T05:56:37;4.38;;;2.88;;
77105;SDS011;66057;54.718;18.426;2023-04-25T05:59:03;3.33;;;3.03;;
77105;SDS011;66057;54.718;18.426;2023-04-25T06:01:29;5.72;;;2.88;;
77105;SDS011;66057;54.718;18.426;2023-04-25T06:03:55;4.43;;;2.45;;
77105;SDS011;66057;54.718;18.426;2023-04-25T06:06:21;7.30;;;3.33;;
77105;SDS011;66057;54.718;18.426;2023-04-25T06:08:47;10.70;;;4.03;;
77105;SDS011;66057;54.718;18.426;2023-04-25T06:11:13;9.95;;;3.33;;
77105;SDS011;66057;54.718;18.426;2023-04-25T06:13:39;9.15;;;3.35;;
77105;SDS011;66057;54.718;18.426;2023-04-25T06:16:05;3.85;;;2.28;;
77105;SDS011;66057;54.718;18.426;2023-04-25T06:18:30;5.32;;;3.05;;
77105;SDS011;66057;54.718;18.426;2023-04-25T06:20:56;5.90;;;3.22;;
77105;SDS011;66057;54.718;18.426;2023-04-25T06:23:22;4.63;;;3.15;;
77105;SDS011;66057;54.718;18.426;2023-04-25T06:25:48;6.13;;;3.97;;
77105;SDS011;66057;54.718;18.426;2023-04-25T06:28:14;5.68;;;3.20;;
77105;SDS011;66057;54.718;18.426;2023-04-25T06:30:41;6.80;;;3.30;;
77105;SDS011;66057;54.718;18.426;2023-04-25T06:33:07;4.70;;;2.75;;
77105;SDS011;66057;54.718;18.426;2023-04-25T06:35:34;4.72;;;2.83;;
77105;SDS011;66057;54.718;18.426;2023-04-25T06:38:02;4.68;;;3.10;;
77105;SDS011;66057;54.718;18.426;2023-04-25T06:40:28;5.85;;;2.80;;
77105;SDS011;66057;54.718;18.426;2023-04-25T06:42:54;8.43;;;3.85;;
77105;SDS011;66057;54.718;18.426;2023-04-25T06:45:19;5.38;;;3.45;;
77105;SDS011;66057;54.718;18.426;2023-04-25T06:47:45;6.43;;;3.08;;
77105;SDS011;66057;54.718;18.426;2023-04-25T06:50:11;3.58;;;2.42;;
77105;SDS011;66057;54.718;18.426;2023-04-25T06:52:36;4.63;;;2.88;;
77105;SDS011;66057;54.718;18.426;2023-04-25T06:55:02;7.75;;;3.35;;
77105;SDS011;66057;54.718;18.426;2023-04-25T06:57:28;5.65;;;3.88;;
77105;SDS011;66057;54.718;18.426;2023-04-25T06:59:53;6.72;;;2.88;;
77105;SDS011;66057;54.718;18.426;2023-04-25T07:02:19;4.68;;;3.63;;
77105;SDS011;66057;54.718;18.426;2023-04-25T07:04:47;8.52;;;2.85;;
77105;SDS011;66057;54.718;18.426;2023-04-25T07:07:12;5.82;;;3.50;;
77105;SDS011;66057;54.718;18.426;2023-04-25T07:09:38;2.63;;;1.83;;
77105;SDS011;66057;54.718;18.426;2023-04-25T07:12:03;9.02;;;3.88;;
77105;SDS011;66057;54.718;18.426;2023-04-25T07:14:30;6.63;;;3.45;;
77105;SDS011;66057;54.718;18.426;2023-04-25T07:16:55;7.95;;;3.60;;
77105;SDS011;66057;54.718;18.426;2023-04-25T07:19:22;10.82;;;3.90;;
77105;SDS011;66057;54.718;18.426;2023-04-25T07:21:51;6.15;;;4.20;;
77105;SDS011;66057;54.718;18.426;2023-04-25T07:24:17;4.82;;;3.05;;
77105;SDS011;66057;54.718;18.426;2023-04-25T07:26:43;6.95;;;4.30;;
77105;SDS011;66057;54.718;18.426;2023-04-25T07:29:09;4.55;;;3.70;;
77105;SDS011;66057;54.718;18.426;2023-04-25T07:31:34;6.75;;;3.47;;
77105;SDS011;66057;54.718;18.426;2023-04-25T07:34:01;7.05;;;2.88;;
77105;SDS011;66057;54.718;18.426;2023-04-25T07:36:26;4.18;;;2.35;;
77105;SDS011;66057;54.718;18.426;2023-04-25T07:38:52;4.03;;;3.35;;
77105;SDS011;66057;54.718;18.426;2023-04-25T07:41:18;3.28;;;2.20;;
77105;SDS011;66057;54.718;18.426;2023-04-25T07:43:43;4.75;;;3.33;;
77105;SDS011;66057;54.718;18.426;2023-04-25T07:46:09;4.18;;;2.72;;
77105;SDS011;66057;54.718;18.426;2023-04-25T07:48:35;3.60;;;2.50;;
77105;SDS011;66057;54.718;18.426;2023-04-25T07:51:00;5.13;;;2.65;;
77105;SDS011;66057;54.718;18.426;2023-04-25T07:53:34;4.32;;;2.47;;
77105;SDS011;66057;54.718;18.426;2023-04-25T07:56:02;5.07;;;2.67;;
77105;SDS011;66057;54.718;18.426;2023-04-25T07:58:28;3.35;;;1.95;;
77105;SDS011;66057;54.718;18.426;2023-04-25T08:00:54;9.80;;;2.78;;
77105;SDS011;66057;54.718;18.426;2023-04-25T08:03:21;5.60;;;2.38;;
77105;SDS011;66057;54.718;18.426;2023-04-25T08:05:46;5.90;;;2.13;;
77105;SDS011;66057;54.718;18.426;2023-04-25T08:08:12;2.47;;;2.28;;
77105;SDS011;66057;54.718;18.426;2023-04-25T08:10:37;5.82;;;1.90;;
77105;SDS011;66057;54.718;18.426;2023-04-25T08:13:03;4.40;;;2.25;;
77105;SDS011;66057;54.718;18.426;2023-04-25T08:15:29;4.38;;;2.33;;
77105;SDS011;66057;54.718;18.426;2023-04-25T08:17:54;5.13;;;2.50;;
77105;SDS011;66057;54.718;18.426;2023-04-25T08:20:20;3.60;;;2.35;;
77105;SDS011;66057;54.718;18.426;2023-04-25T08:22:46;3.00;;;2.15;;
77105;SDS011;66057;54.718;18.426;2023-04-25T08:25:14;1.63;;;1.48;;
77105;SDS011;66057;54.718;18.426;2023-04-25T08:27:39;4.15;;;1.70;;
77105;SDS011;66057;54.718;18.426;2023-04-25T08:30:08;3.25;;;1.73;;
77105;SDS011;66057;54.718;18.426;2023-04-25T08:32:33;1.52;;;1.15;;
77105;SDS011;66057;54.718;18.426;2023-04-25T08:34:59;2.47;;;1.92;;
77105;SDS011;66057;54.718;18.426;2023-04-25T08:37:25;3.40;;;2.42;;
77105;SDS011;66057;54.718;18.426;2023-04-25T08:39:51;4.35;;;2.78;;
77105;SDS011;66057;54.718;18.426;2023-04-25T08:42:20;2.97;;;2.00;;
77105;SDS011;66057;54.718;18.426;2023-04-25T08:44:47;4.85;;;1.90;;
77105;SDS011;66057;54.718;18.426;2023-04-25T08:47:13;4.28;;;2.80;;
77105;SDS011;66057;54.718;18.426;2023-04-25T08:49:39;3.80;;;1.85;;
77105;SDS011;66057;54.718;18.426;2023-04-25T08:52:10;4.00;;;1.85;;
77105;SDS011;66057;54.718;18.426;2023-04-25T08:54:41;2.58;;;1.38;;
77105;SDS011;66057;54.718;18.426;2023-04-25T08:57:09;2.13;;;1.67;;
77105;SDS011;66057;54.718;18.426;2023-04-25T08:59:35;1.80;;;1.40;;
77105;SDS011;66057;54.718;18.426;2023-04-25T09:02:03;1.38;;;1.08;;
77105;SDS011;66057;54.718;18.426;2023-04-25T09:04:32;1.50;;;1.38;;
77105;SDS011;66057;54.718;18.426;2023-04-25T09:06:57;2.45;;;1.65;;
77105;SDS011;66057;54.718;18.426;2023-04-25T09:09:24;2.10;;;1.25;;
77105;SDS011;66057;54.718;18.426;2023-04-25T09:11:49;5.63;;;1.55;;
77105;SDS011;66057;54.718;18.426;2023-04-25T09:14:19;5.05;;;1.27;;
77105;SDS011;66057;54.718;18.426;2023-04-25T09:19:25;2.55;;;1.75;;
77105;SDS011;66057;54.718;18.426;2023-04-25T09:21:59;1.92;;;1.70;;
77105;SDS011;66057;54.718;18.426;2023-04-25T09:26:59;1.65;;;1.55;;
77105;SDS011;66057;54.718;18.426;2023-04-25T09:29:38;3.50;;;2.00;;
77105;SDS011;66057;54.718;18.426;2023-04-25T09:32:26;3.08;;;1.55;;
77105;SDS011;66057;54.718;18.426;2023-04-25T09:34:55;3.03;;;1.77;;
77105;SDS011;66057;54.718;18.426;2023-04-25T09:39:55;2.40;;;1.25;;
77105;SDS011;66057;54.718;18.426;2023-04-25T09:42:24;1.52;;;1.27;;
77105;SDS011;66057;54.718;18.426;2023-04-25T09:44:52;2.13;;;1.63;;
77105;SDS011;66057;54.718;18.426;2023-04-25T09:47:19;8.10;;;2.58;;
77105;SDS011;66057;54.718;18.426;2023-04-25T09:49:46;2.58;;;1.25;;
77105;SDS011;66057;54.718;18.426;2023-04-25T09:52:17;3.10;;;1.55;;
77105;SDS011;66057;54.718;18.426;2023-04-25T09:54:45;3.03;;;2.13;;
77105;SDS011;66057;54.718;18.426;2023-04-25T09:57:22;1.85;;;1.38;;
77105;SDS011;66057;54.718;18.426;2023-04-25T10:02:19;1.40;;;1.17;;
77105;SDS011;66057;54.718;18.426;2023-04-25T10:04:47;3.33;;;1.48;;
77105;SDS011;66057;54.718;18.426;2023-04-25T10:07:16;3.10;;;1.30;;
77105;SDS011;66057;54.718;18.426;2023-04-25T10:09:43;2.55;;;1.48;;
77105;SDS011;66057;54.718;18.426;2023-04-25T10:12:12;5.10;;;1.52;;
77105;SDS011;66057;54.718;18.426;2023-04-25T10:14:38;2.30;;;1.33;;
77105;SDS011;66057;54.718;18.426;2023-04-25T10:19:31;5.75;;;1.70;;
77105;SDS011;66057;54.718;18.426;2023-04-25T10:22:04;1.63;;;1.02;;
77105;SDS011;66057;54.718;18.426;2023-04-25T10:24:43;2.40;;;1.35;;
77105;SDS011;66057;54.718;18.426;2023-04-25T10:27:11;1.55;;;0.73;;
77105;SDS011;66057;54.718;18.426;2023-04-25T10:29:37;2.47;;;1.35;;
77105;SDS011;66057;54.718;18.426;2023-04-25T10:32:03;4.82;;;1.90;;
77105;SDS011;66057;54.718;18.426;2023-04-25T10:34:42;2.67;;;1.27;;
77105;SDS011;66057;54.718;18.426;2023-04-25T10:37:11;4.78;;;1.88;;
77105;SDS011;66057;54.718;18.426;2023-04-25T10:39:41;6.38;;;2.00;;
77105;SDS011;66057;54.718;18.426;2023-04-25T10:42:07;1.90;;;1.40;;
77105;SDS011;66057;54.718;18.426;2023-04-25T10:44:34;4.05;;;1.52;;
77105;SDS011;66057;54.718;18.426;2023-04-25T10:47:01;6.75;;;1.80;;
77105;SDS011;66057;54.718;18.426;2023-04-25T10:49:34;2.67;;;1.90;;
77105;SDS011;66057;54.718;18.426;2023-04-25T10:54:43;4.97;;;1.60;;
77105;SDS011;66057;54.718;18.426;2023-04-25T11:00:01;3.22;;;1.50;;
77105;SDS011;66057;54.718;18.426;2023-04-25T11:02:43;5.82;;;2.45;;
77105;SDS011;66057;54.718;18.426;2023-04-25T11:05:16;8.73;;;2.30;;
77105;SDS011;66057;54.718;18.426;2023-04-25T11:10:17;4.05;;;1.42;;
77105;SDS011;66057;54.718;18.426;2023-04-25T11:12:44;2.03;;;1.02;;
77105;SDS011;66057;54.718;18.426;2023-04-25T11:15:10;4.47;;;1.83;;
77105;SDS011;66057;54.718;18.426;2023-04-25T11:17:36;2.65;;;1.40;;
77105;SDS011;66057;54.718;18.426;2023-04-25T11:20:02;3.70;;;1.58;;
77105;SDS011;66057;54.718;18.426;2023-04-25T11:22:32;6.20;;;1.52;;
77105;SDS011;66057;54.718;18.426;2023-04-25T11:25:03;5.05;;;1.60;;
77105;SDS011;66057;54.718;18.426;2023-04-25T11:27:30;6.30;;;2.17;;
77105;SDS011;66057;54.718;18.426;2023-04-25T11:29:55;6.93;;;1.88;;
77105;SDS011;66057;54.718;18.426;2023-04-25T11:32:21;3.85;;;1.48;;
77105;SDS011;66057;54.718;18.426;2023-04-25T11:34:47;5.32;;;2.38;;
77105;SDS011;66057;54.718;18.426;2023-04-25T11:37:12;4.78;;;1.45;;
77105;SDS011;66057;54.718;18.426;2023-04-25T11:42:08;1.77;;;1.02;;
77105;SDS011;66057;54.718;18.426;2023-04-25T11:44:34;2.88;;;1.75;;
77105;SDS011;66057;54.718;18.426;2023-04-25T11:46:59;3.80;;;2.15;;
77105;SDS011;66057;54.718;18.426;2023-04-25T11:49:29;3.90;;;2.00;;
77105;SDS011;66057;54.718;18.426;2023-04-25T11:51:56;5.57;;;2.67;;
77105;SDS011;66057;54.718;18.426;2023-04-25T11:54:22;10.27;;;2.88;;
77105;SDS011;66057;54.718;18.426;2023-04-25T11:56:48;2.25;;;1.20;;
77105;SDS011;66057;54.718;18.426;2023-04-25T11:59:14;6.47;;;2.10;;
77105;SDS011;66057;54.718;18.426;2023-04-25T12:01:40;7.03;;;1.92;;
77105;SDS011;66057;54.718;18.426;2023-04-25T12:04:13;7.20;;;2.40;;
77105;SDS011;66057;54.718;18.426;2023-04-25T12:06:42;6.00;;;2.58;;
77105;SDS011;66057;54.718;18.426;2023-04-25T12:09:10;2.92;;;1.75;;
77105;SDS011;66057;54.718;18.426;2023-04-25T12:11:41;8.65;;;3.53;;
77105;SDS011;66057;54.718;18.426;2023-04-25T12:14:11;9.75;;;3.05;;
77105;SDS011;66057;54.718;18.426;2023-04-25T12:19:13;4.63;;;1.90;;
77105;SDS011;66057;54.718;18.426;2023-04-25T12:21:39;5.07;;;1.67;;
77105;SDS011;66057;54.718;18.426;2023-04-25T12:24:11;5.43;;;1.67;;
77105;SDS011;66057;54.718;18.426;2023-04-25T12:29:18;6.30;;;1.88;;
77105;SDS011;66057;54.718;18.426;2023-04-25T12:31:45;7.03;;;1.80;;
77105;SDS011;66057;54.718;18.426;2023-04-25T12:34:12;9.35;;;1.77;;
77105;SDS011;66057;54.718;18.426;2023-04-25T12:36:37;4.82;;;1.73;;
77105;SDS011;66057;54.718;18.426;2023-04-25T12:39:04;4.20;;;1.10;;
77105;SDS011;66057;54.718;18.426;2023-04-25T12:41:30;6.05;;;1.73;;
77105;SDS011;66057;54.718;18.426;2023-04-25T12:43:56;5.45;;;1.58;;
77105;SDS011;66057;54.718;18.426;2023-04-25T12:46:21;5.93;;;1.90;;
77105;SDS011;66057;54.718;18.426;2023-04-25T12:48:48;7.07;;;2.10;;
77105;SDS011;66057;54.718;18.426;2023-04-25T12:51:14;4.75;;;1.50;;
77105;SDS011;66057;54.718;18.426;2023-04-25T12:53:40;6.72;;;1.92;;
77105;SDS011;66057;54.718;18.426;2023-04-25T12:56:06;3.63;;;1.17;;
77105;SDS011;66057;54.718;18.426;2023-04-25T12:58:36;1.55;;;0.77;;
77105;SDS011;66057;54.718;18.426;2023-04-25T13:01:01;4.88;;;2.00;;
77105;SDS011;66057;54.718;18.426;2023-04-25T13:03:27;2.95;;;1.33;;
77105;SDS011;66057;54.718;18.426;2023-04-25T13:05:52;4.15;;;0.70;;
77105;SDS011;66057;54.718;18.426;2023-04-25T13:08:18;4.60;;;1.40;;
77105;SDS011;66057;54.718;18.426;2023-04-25T13:10:44;3.45;;;1.23;;
77105;SDS011;66057;54.718;18.426;2023-04-25T13:13:10;3.67;;;1.98;;
77105;SDS011;66057;54.718;18.426;2023-04-25T13:15:35;1.70;;;1.40;;
77105;SDS011;66057;54.718;18.426;2023-04-25T13:18:03;4.15;;;1.80;;
77105;SDS011;66057;54.718;18.426;2023-04-25T13:20:30;4.72;;;1.50;;
77105;SDS011;66057;54.718;18.426;2023-04-25T13:22:56;5.93;;;1.73;;
77105;SDS011;66057;54.718;18.426;2023-04-25T13:25:22;1.73;;;1.35;;
77105;SDS011;66057;54.718;18.426;2023-04-25T13:27:48;4.57;;;1.20;;
77105;SDS011;66057;54.718;18.426;2023-04-25T13:30:13;4.00;;;1.83;;
77105;SDS011;66057;54.718;18.426;2023-04-25T13:32:39;3.85;;;1.23;;
77105;SDS011;66057;54.718;18.426;2023-04-25T13:35:07;3.38;;;1.40;;
77105;SDS011;66057;54.718;18.426;2023-04-25T13:37:37;5.03;;;1.45;;
77105;SDS011;66057;54.718;18.426;2023-04-25T13:40:04;5.40;;;1.48;;
77105;SDS011;66057;54.718;18.426;2023-04-25T13:42:32;3.63;;;1.25;;
77105;SDS011;66057;54.718;18.426;2023-04-25T13:44:57;3.40;;;1.75;;
77105;SDS011;66057;54.718;18.426;2023-04-25T13:47:23;6.30;;;1.35;;
77105;SDS011;66057;54.718;18.426;2023-04-25T13:49:50;6.03;;;2.13;;
77105;SDS011;66057;54.718;18.426;2023-04-25T13:52:16;3.08;;;1.25;;
77105;SDS011;66057;54.718;18.426;2023-04-25T13:54:41;3.78;;;1.63;;
77105;SDS011;66057;54.718;18.426;2023-04-25T13:57:07;7.45;;;1.83;;
77105;SDS011;66057;54.718;18.426;2023-04-25T13:59:33;3.47;;;2.45;;
77105;SDS011;66057;54.718;18.426;2023-04-25T14:01:59;8.57;;;2.42;;
77105;SDS011;66057;54.718;18.426;2023-04-25T14:04:24;8.43;;;2.00;;
77105;SDS011;66057;54.718;18.426;2023-04-25T14:06:51;9.95;;;1.88;;
77105;SDS011;66057;54.718;18.426;2023-04-25T14:09:18;3.70;;;1.23;;
77105;SDS011;66057;54.718;18.426;2023-04-25T14:11:45;3.70;;;2.30;;
77105;SDS011;66057;54.718;18.426;2023-04-25T14:14:10;2.63;;;1.15;;
77105;SDS011;66057;54.718;18.426;2023-04-25T14:16:37;7.85;;;1.90;;
77105;SDS011;66057;54.718;18.426;2023-04-25T14:19:03;6.53;;;2.17;;
77105;SDS011;66057;54.718;18.426;2023-04-25T14:21:31;5.60;;;1.23;;
77105;SDS011;66057;54.718;18.426;2023-04-25T14:23:57;9.02;;;2.08;;
77105;SDS011;66057;54.718;18.426;2023-04-25T14:26:23;6.55;;;2.15;;
77105;SDS011;66057;54.718;18.426;2023-04-25T14:28:53;4.28;;;1.80;;
77105;SDS011;66057;54.718;18.426;2023-04-25T14:31:23;3.83;;;2.00;;
77105;SDS011;66057;54.718;18.426;2023-04-25T14:33:48;7.90;;;1.55;;
77105;SDS011;66057;54.718;18.426;2023-04-25T14:36:14;4.55;;;1.52;;
77105;SDS011;66057;54.718;18.426;2023-04-25T14:38:40;3.85;;;1.88;;
77105;SDS011;66057;54.718;18.426;2023-04-25T14:41:05;4.90;;;1.58;;
77105;SDS011;66057;54.718;18.426;2023-04-25T14:43:31;4.05;;;1.67;;
77105;SDS011;66057;54.718;18.426;2023-04-25T14:45:57;7.22;;;1.98;;
77105;SDS011;66057;54.718;18.426;2023-04-25T14:48:22;5.88;;;3.08;;
77105;SDS011;66057;54.718;18.426;2023-04-25T14:50:48;3.38;;;2.17;;
77105;SDS011;66057;54.718;18.426;2023-04-25T14:53:14;3.80;;;1.90;;
77105;SDS011;66057;54.718;18.426;2023-04-25T14:55:40;3.70;;;1.95;;
77105;SDS011;66057;54.718;18.426;2023-04-25T14:58:05;3.97;;;2.20;;
77105;SDS011;66057;54.718;18.426;2023-04-25T15:00:32;6.53;;;2.03;;
77105;SDS011;66057;54.718;18.426;2023-04-25T15:02:58;10.05;;;1.95;;
77105;SDS011;66057;54.718;18.426;2023-04-25T15:05:24;11.18;;;2.20;;